createdAt,value
2019-05-15T00:01:19.084Z,7.58
2019-05-15T00:03:22.619Z,6.78
2019-05-15T00:05:29.093Z,7.65
2019-05-15T00:07:32.481Z,7.08
2019-05-15T00:09:41.212Z,7.55
2019-05-15T00:11:42.033Z,8.68
2019-05-15T00:13:48.216Z,7.70
2019-05-15T00:15:51.466Z,8.00
2019-05-15T00:17:57.788Z,7.15
2019-05-15T00:20:00.879Z,7.65
2019-05-15T00:22:04.925Z,7.78
2019-05-15T00:24:13.093Z,7.20
2019-05-15T00:26:14.373Z,7.92
2019-05-15T00:28:18.663Z,7.67
2019-05-15T00:30:23.002Z,7.80
2019-05-15T00:32:28.262Z,8.83
2019-05-15T00:34:32.731Z,7.70
2019-05-15T00:36:38.319Z,7.50
2019-05-15T00:38:42.208Z,7.33
2019-05-15T00:40:46.418Z,8.40
2019-05-15T00:42:50.430Z,7.08
2019-05-15T00:44:54.336Z,7.58
2019-05-15T00:46:58.373Z,7.78
2019-05-15T00:49:02.352Z,8.60
2019-05-15T00:51:08.298Z,8.50
2019-05-15T00:53:12.044Z,7.03
2019-05-15T00:55:16.321Z,7.47
2019-05-15T00:57:20.151Z,6.83
2019-05-15T00:59:26.605Z,6.97
2019-05-15T01:01:29.486Z,6.75
2019-05-15T01:03:33.480Z,7.15
2019-05-15T01:05:38.785Z,7.70
2019-05-15T01:07:43.003Z,7.83
2019-05-15T01:09:50.902Z,8.35
2019-05-15T01:11:55.011Z,8.08
2019-05-15T01:13:59.021Z,8.10
2019-05-15T01:16:03.019Z,7.00
2019-05-15T01:18:09.057Z,6.62
2019-05-15T01:20:12.483Z,6.37
2019-05-15T01:22:16.384Z,6.33
2019-05-15T01:24:20.388Z,6.60
2019-05-15T01:26:24.396Z,6.58
2019-05-15T01:28:28.901Z,7.20
2019-05-15T01:30:33.131Z,7.22
2019-05-15T01:32:39.333Z,6.65
2019-05-15T01:34:42.683Z,6.70
2019-05-15T01:36:48.701Z,6.47
2019-05-15T01:38:52.213Z,6.00
2019-05-15T01:40:56.082Z,6.55
2019-05-15T01:42:59.939Z,6.60
2019-05-15T01:45:03.844Z,6.25
2019-05-15T01:47:08.512Z,6.60
2019-05-15T01:49:12.679Z,6.80
2019-05-15T01:51:18.406Z,7.50
2019-05-15T01:53:22.075Z,7.30
2019-05-15T01:55:28.439Z,6.37
2019-05-15T01:57:32.601Z,6.55
2019-05-15T01:59:38.888Z,7.35
2019-05-15T02:01:42.151Z,7.42
2019-05-15T02:03:46.160Z,6.92
2019-05-15T02:05:50.167Z,6.47
2019-05-15T02:07:54.175Z,7.78
2019-05-15T02:09:58.331Z,6.30
2019-05-15T02:12:02.396Z,8.55
2019-05-15T02:14:08.357Z,6.92
2019-05-15T02:16:12.052Z,6.72
2019-05-15T02:18:16.002Z,6.75
2019-05-15T02:20:20.168Z,6.08
2019-05-15T02:22:24.173Z,6.75
2019-05-15T02:24:28.514Z,6.45
2019-05-15T02:26:32.588Z,7.78
2019-05-15T02:28:38.474Z,6.30
2019-05-15T02:30:42.255Z,8.23
2019-05-15T02:32:50.094Z,7.55
2019-05-15T02:34:53.216Z,8.43
2019-05-15T02:37:00.159Z,8.50
2019-05-15T02:39:02.792Z,7.80
2019-05-15T02:41:09.840Z,7.60
2019-05-15T02:43:12.689Z,8.20
2019-05-15T02:45:19.546Z,8.85
2019-05-15T02:47:22.493Z,8.45
2019-05-15T02:49:29.918Z,8.55
2019-05-15T02:51:34.661Z,8.13
2019-05-15T02:53:39.571Z,7.85
2019-05-15T02:55:43.803Z,7.97
2019-05-15T02:57:49.480Z,7.58
2019-05-15T02:59:53.414Z,8.68
2019-05-15T03:01:59.427Z,7.67
2019-05-15T03:04:03.176Z,8.75
2019-05-15T03:06:10.008Z,9.23
2019-05-15T03:08:12.823Z,9.85
2019-05-15T03:10:19.767Z,9.43
2019-05-15T03:12:22.233Z,12.90
2019-05-15T03:14:28.868Z,11.12
2019-05-15T03:16:31.708Z,9.93
2019-05-15T03:18:35.553Z,10.43
2019-05-15T03:20:39.974Z,10.43
2019-05-15T03:22:43.877Z,9.93
2019-05-15T03:24:50.278Z,11.22
2019-05-15T03:26:53.404Z,12.03
2019-05-15T03:28:59.039Z,11.35
2019-05-15T03:31:22.467Z,10.82
2019-05-15T03:33:17.297Z,12.05
2019-05-15T03:35:15.652Z,16.75
2019-05-15T03:37:22.346Z,12.13
2019-05-15T03:39:25.434Z,10.10
2019-05-15T03:41:29.872Z,12.23
2019-05-15T03:43:33.914Z,13.18
2019-05-15T03:45:40.469Z,12.30
2019-05-15T03:47:43.508Z,13.28
2019-05-15T03:49:49.449Z,11.73
2019-05-15T03:51:52.959Z,12.55
2019-05-15T03:54:00.074Z,13.08
2019-05-15T03:56:02.309Z,14.63
2019-05-15T03:58:09.568Z,13.90
2019-05-15T04:00:12.397Z,11.97
2019-05-15T04:02:19.230Z,13.70
2019-05-15T04:04:23.249Z,13.90
2019-05-15T04:06:29.923Z,12.35
2019-05-15T04:08:32.680Z,11.97
2019-05-15T04:10:39.475Z,14.20
2019-05-15T04:12:42.355Z,14.07
2019-05-15T04:14:49.819Z,14.35
2019-05-15T04:16:51.903Z,17.62
2019-05-15T04:18:59.199Z,14.30
2019-05-15T04:21:02.070Z,13.90
2019-05-15T04:23:09.350Z,14.73
2019-05-15T04:25:12.142Z,12.28
2019-05-15T04:27:19.552Z,14.55
2019-05-15T04:29:21.952Z,14.87
2019-05-15T04:31:25.823Z,12.37
2019-05-15T04:33:29.883Z,16.95
2019-05-15T04:35:33.912Z,17.82
2019-05-15T04:37:40.597Z,19.48
2019-05-15T04:39:43.674Z,17.55
2019-05-15T04:41:50.064Z,16.97
2019-05-15T04:43:53.219Z,15.70
2019-05-15T04:45:59.040Z,16.42
2019-05-15T04:48:02.562Z,15.98
2019-05-15T04:50:08.939Z,19.90
2019-05-15T04:52:13.246Z,17.57
2019-05-15T04:54:19.726Z,23.92
2019-05-15T04:56:22.650Z,19.87
2019-05-15T04:58:29.423Z,17.80
2019-05-15T05:00:51.395Z,19.32
2019-05-15T05:02:55.240Z,17.50
2019-05-15T05:04:59.351Z,16.35
2019-05-15T05:07:03.511Z,17.20
2019-05-15T05:09:09.175Z,16.62
2019-05-15T05:11:13.278Z,14.53
2019-05-15T05:13:20.002Z,17.55
2019-05-15T05:15:23.029Z,21.95
2019-05-15T05:17:28.911Z,22.37
2019-05-15T05:19:32.416Z,16.25
2019-05-15T05:21:38.495Z,14.60
2019-05-15T05:23:42.476Z,14.47
2019-05-15T05:25:48.819Z,12.30
2019-05-15T05:27:52.107Z,11.73
2019-05-15T05:29:58.588Z,11.95
2019-05-15T05:32:01.830Z,13.35
2019-05-15T05:34:08.119Z,15.88
2019-05-15T05:36:11.506Z,19.92
2019-05-15T05:38:15.512Z,16.90
2019-05-15T05:40:19.539Z,17.70
2019-05-15T05:42:23.443Z,12.33
2019-05-15T05:44:29.152Z,11.73
2019-05-15T05:46:32.881Z,12.85
2019-05-15T05:48:38.363Z,12.50
2019-05-15T05:50:44.578Z,13.35
2019-05-15T05:52:49.055Z,12.95
2019-05-15T05:54:54.744Z,13.15
2019-05-15T05:56:58.760Z,18.27
2019-05-15T05:59:02.684Z,16.52
2019-05-15T06:01:09.067Z,14.43
2019-05-15T06:03:12.310Z,14.87
2019-05-15T06:05:18.823Z,12.18
2019-05-15T06:07:21.859Z,11.60
2019-05-15T06:09:27.745Z,12.63
2019-05-15T06:11:31.512Z,12.05
2019-05-15T06:13:38.273Z,12.03
2019-05-15T06:15:42.499Z,10.93
2019-05-15T06:17:48.155Z,13.43
2019-05-15T06:19:52.255Z,13.05
2019-05-15T06:21:58.206Z,16.23
2019-05-15T06:24:04.875Z,15.03
2019-05-15T06:26:09.446Z,13.70
2019-05-15T06:28:12.995Z,11.03
2019-05-15T06:30:22.091Z,11.90
2019-05-15T06:32:31.017Z,10.88
2019-05-15T06:34:35.155Z,12.65
2019-05-15T06:36:39.481Z,13.50
2019-05-15T06:38:48.173Z,12.65
2019-05-15T06:40:51.123Z,12.37
2019-05-15T06:42:55.113Z,16.85
2019-05-15T06:44:59.063Z,13.28
2019-05-15T06:47:03.337Z,9.53
2019-05-15T06:49:09.405Z,10.85
2019-05-15T06:51:18.391Z,11.28
2019-05-15T06:53:21.904Z,12.25
2019-05-15T06:55:25.978Z,13.03
2019-05-15T06:57:29.883Z,13.88
2019-05-15T06:59:33.777Z,13.30
2019-05-15T07:01:38.571Z,12.90
2019-05-15T07:03:42.654Z,14.85
2019-05-15T07:05:46.593Z,12.18
2019-05-15T07:07:50.636Z,18.17
2019-05-15T07:09:54.491Z,21.68
2019-05-15T07:11:59.061Z,19.00
2019-05-15T07:14:03.125Z,18.48
2019-05-15T07:16:08.058Z,14.15
2019-05-15T07:18:12.246Z,18.70
2019-05-15T07:20:18.574Z,20.15
2019-05-15T07:22:22.552Z,19.85
2019-05-15T07:24:28.936Z,15.70
2019-05-15T07:26:32.914Z,18.82
2019-05-15T07:28:38.007Z,14.83
2019-05-15T07:30:42.123Z,20.80
2019-05-15T07:32:48.427Z,16.52
2019-05-15T07:34:51.594Z,20.35
2019-05-15T07:36:55.443Z,13.68
2019-05-15T07:38:59.441Z,19.50
2019-05-15T07:41:04.477Z,14.87
2019-05-15T07:43:09.332Z,23.20
2019-05-15T07:45:14.037Z,20.05
2019-05-15T07:47:19.166Z,13.80
2019-05-15T07:49:23.396Z,14.35
2019-05-15T07:51:28.731Z,13.55
2019-05-15T07:53:33.182Z,11.20
2019-05-15T07:55:39.363Z,11.90
2019-05-15T07:57:42.548Z,12.95
2019-05-15T07:59:48.049Z,13.80
2019-05-15T08:01:52.045Z,15.85
2019-05-15T08:04:09.288Z,15.13
2019-05-15T08:06:03.319Z,13.90
2019-05-15T08:08:08.838Z,13.30
2019-05-15T08:10:13.489Z,15.58
2019-05-15T08:12:19.295Z,13.72
2019-05-15T08:14:22.867Z,15.20
2019-05-15T08:16:28.750Z,14.63
2019-05-15T08:18:32.228Z,12.13
2019-05-15T08:20:38.344Z,13.75
2019-05-15T08:22:41.852Z,18.25
2019-05-15T08:24:48.274Z,19.48
2019-05-15T08:26:51.401Z,16.42
2019-05-15T08:28:57.805Z,16.48
2019-05-15T08:31:00.955Z,13.93
2019-05-15T08:33:04.876Z,17.52
2019-05-15T08:35:09.357Z,17.50
2019-05-15T08:37:13.383Z,17.87
2019-05-15T08:39:19.003Z,18.02
2019-05-15T08:41:22.834Z,21.73
2019-05-15T08:43:29.010Z,20.17
2019-05-15T08:45:32.375Z,23.40
2019-05-15T08:47:38.501Z,19.37
2019-05-15T08:49:43.352Z,19.92
2019-05-15T08:51:48.685Z,22.05
2019-05-15T08:53:52.751Z,20.08
2019-05-15T08:55:58.688Z,23.02
2019-05-15T08:58:08.040Z,20.37
2019-05-15T09:00:09.963Z,19.85
2019-05-15T09:02:14.175Z,24.37
2019-05-15T09:04:27.947Z,25.30
2019-05-15T09:06:23.728Z,27.42
2019-05-15T09:08:29.251Z,22.85
2019-05-15T09:10:33.380Z,27.95
2019-05-15T09:12:38.753Z,26.80
2019-05-15T09:14:43.019Z,26.15
2019-05-15T09:16:50.217Z,27.22
2019-05-15T09:18:54.104Z,22.25
2019-05-15T09:20:59.286Z,24.15
2019-05-15T09:23:03.489Z,25.52
2019-05-15T09:25:09.058Z,26.37
2019-05-15T09:27:13.226Z,35.43
2019-05-15T09:29:18.303Z,28.27
2019-05-15T09:31:22.468Z,30.12
2019-05-15T09:33:28.618Z,31.42
2019-05-15T09:35:31.948Z,26.25
2019-05-15T09:37:38.300Z,32.70
2019-05-15T09:39:41.570Z,30.92
2019-05-15T09:41:48.821Z,27.42
2019-05-15T09:43:52.519Z,25.40
2019-05-15T09:45:58.334Z,29.18
2019-05-15T09:48:02.242Z,24.23
2019-05-15T09:50:08.783Z,33.55
2019-05-15T09:52:12.790Z,27.15
2019-05-15T09:54:19.054Z,31.87
2019-05-15T09:56:23.904Z,29.55
2019-05-15T09:58:30.054Z,28.60
2019-05-15T10:00:33.448Z,30.48
2019-05-15T10:02:39.414Z,30.43
2019-05-15T10:04:42.819Z,34.20
2019-05-15T10:06:48.559Z,34.10
2019-05-15T10:08:52.357Z,34.40
2019-05-15T10:10:56.447Z,34.85
2019-05-15T10:13:00.673Z,34.90
2019-05-15T10:15:11.339Z,33.48
2019-05-15T10:17:18.693Z,27.02
2019-05-15T10:19:22.705Z,30.97
2019-05-15T10:21:31.527Z,29.65
2019-05-15T10:23:33.779Z,27.65
2019-05-15T10:25:38.942Z,30.27
2019-05-15T10:27:42.972Z,34.05
2019-05-15T10:29:48.786Z,28.17
2019-05-15T10:31:54.223Z,29.12
2019-05-15T10:33:58.442Z,25.72
2019-05-15T10:36:02.435Z,26.62
2019-05-15T10:38:08.781Z,30.65
2019-05-15T10:40:16.457Z,26.25
2019-05-15T10:42:20.518Z,32.80
2019-05-15T10:44:24.413Z,27.27
2019-05-15T10:46:28.392Z,29.30
2019-05-15T10:48:32.452Z,26.37
2019-05-15T10:50:38.610Z,36.10
2019-05-15T10:52:42.030Z,29.10
2019-05-15T10:54:46.090Z,28.40
2019-05-15T10:56:50.106Z,26.33
2019-05-15T10:58:58.935Z,27.73
2019-05-15T11:01:03.558Z,28.45
2019-05-15T11:03:08.881Z,28.90
2019-05-15T11:05:13.705Z,29.67
2019-05-15T11:07:19.422Z,28.07
2019-05-15T11:09:23.278Z,34.65
2019-05-15T11:11:27.221Z,31.02
2019-05-15T11:13:31.375Z,32.05
2019-05-15T11:15:35.363Z,31.35
2019-05-15T11:17:39.606Z,32.65
2019-05-15T11:19:45.051Z,34.48
2019-05-15T11:21:49.198Z,33.33
2019-05-15T11:23:53.051Z,29.60
2019-05-15T11:25:58.158Z,31.77
2019-05-15T11:28:02.298Z,37.30
2019-05-15T11:30:11.336Z,41.33
2019-05-15T11:32:18.133Z,35.55
2019-05-15T11:34:23.432Z,36.48
2019-05-15T11:36:28.757Z,33.48
2019-05-15T11:38:33.089Z,31.70
2019-05-15T11:40:38.922Z,34.18
2019-05-15T11:42:42.636Z,35.90
2019-05-15T11:44:48.424Z,35.20
2019-05-15T11:46:52.190Z,30.02
2019-05-15T11:48:59.268Z,36.75
2019-05-15T11:51:03.155Z,38.35
2019-05-15T11:53:08.723Z,44.33
2019-05-15T11:55:13.086Z,45.15
2019-05-15T11:57:18.993Z,59.48
2019-05-15T11:59:22.534Z,47.85
2019-05-15T12:01:28.848Z,48.45
2019-05-15T12:03:32.340Z,64.80
2019-05-15T12:05:38.709Z,45.25
2019-05-15T12:07:41.857Z,38.95
2019-05-15T12:09:45.897Z,47.33
2019-05-15T12:11:49.896Z,50.33
2019-05-15T12:13:53.762Z,49.05
2019-05-15T12:16:00.891Z,41.37
2019-05-15T12:18:04.898Z,38.73
2019-05-15T12:20:10.726Z,43.02
2019-05-15T12:22:14.694Z,38.00
2019-05-15T12:24:18.559Z,39.35
2019-05-15T12:26:22.478Z,38.55
2019-05-15T12:28:29.327Z,41.23
2019-05-15T12:30:31.828Z,41.58
2019-05-15T12:32:39.388Z,49.13
2019-05-15T12:34:41.545Z,47.40
2019-05-15T12:36:53.240Z,50.48
2019-05-15T12:38:51.122Z,45.83
2019-05-15T12:59:47.387Z,44.48
2019-05-15T13:01:51.441Z,44.90
2019-05-15T13:03:58.052Z,45.88
2019-05-15T13:06:01.863Z,48.73
2019-05-15T13:08:07.800Z,41.13
2019-05-15T13:10:12.021Z,45.70
2019-05-15T13:12:18.058Z,44.35
2019-05-15T13:14:21.675Z,42.05
2019-05-15T13:16:28.004Z,41.70
2019-05-15T13:18:31.225Z,45.48
2019-05-15T13:20:35.215Z,39.67
2019-05-15T13:22:39.472Z,41.45
2019-05-15T13:24:43.659Z,36.20
2019-05-15T13:26:47.769Z,39.70
2019-05-15T13:28:51.684Z,39.38
2019-05-15T13:30:59.580Z,40.58
2019-05-15T13:33:03.833Z,39.13
2019-05-15T13:35:10.030Z,37.80
2019-05-15T13:37:26.373Z,36.93
2019-05-15T13:39:19.636Z,40.30
2019-05-15T13:41:23.564Z,40.55
2019-05-15T13:43:29.003Z,37.30
2019-05-15T13:45:33.240Z,44.15
2019-05-15T13:47:38.824Z,43.90
2019-05-15T13:49:43.015Z,57.00
2019-05-15T13:51:48.798Z,61.77
2019-05-15T13:53:53.689Z,70.65
2019-05-15T13:55:57.820Z,54.18
2019-05-15T13:58:01.709Z,46.77
2019-05-15T14:00:11.761Z,45.55
2019-05-15T14:02:15.649Z,43.05
2019-05-15T14:04:19.669Z,43.90
2019-05-15T14:06:23.613Z,45.85
2019-05-15T14:08:28.845Z,46.25
2019-05-15T14:10:32.924Z,44.95
2019-05-15T14:12:38.342Z,52.53
2019-05-15T14:14:42.561Z,47.78
2019-05-15T14:16:48.934Z,44.20
2019-05-15T14:18:55.309Z,44.90
2019-05-15T14:20:59.140Z,38.05
2019-05-15T14:23:03.213Z,34.65
2019-05-15T14:25:08.848Z,34.85
2019-05-15T14:27:13.600Z,36.53
2019-05-15T14:29:18.936Z,36.73
2019-05-15T14:31:23.238Z,29.45
2019-05-15T14:33:29.183Z,35.98
2019-05-15T14:35:33.505Z,31.15
2019-05-15T14:37:37.925Z,31.73
2019-05-15T14:39:42.072Z,32.90
2019-05-15T14:41:49.043Z,35.03
2019-05-15T14:43:52.434Z,32.70
2019-05-15T14:45:58.630Z,33.40
2019-05-15T14:48:02.738Z,31.30
2019-05-15T14:50:10.193Z,30.12
2019-05-15T14:52:13.188Z,29.92
2019-05-15T14:54:18.695Z,32.33
2019-05-15T14:56:24.345Z,30.80
2019-05-15T14:58:31.543Z,33.13
2019-05-15T15:00:35.551Z,26.17
2019-05-15T15:02:39.638Z,29.70
2019-05-15T15:04:43.495Z,32.48
2019-05-15T15:06:48.755Z,28.47
2019-05-15T15:08:52.887Z,27.42
2019-05-15T15:10:59.379Z,29.12
2019-05-15T15:13:03.559Z,26.15
2019-05-15T15:15:10.427Z,29.10
2019-05-15T15:17:14.550Z,29.60
2019-05-15T15:19:18.624Z,27.50
2019-05-15T15:21:22.908Z,30.85
2019-05-15T15:23:28.348Z,29.05
2019-05-15T15:25:32.602Z,25.97
2019-05-15T15:27:38.691Z,24.80
2019-05-15T15:29:42.206Z,31.12
2019-05-15T15:31:49.178Z,32.03
2019-05-15T15:33:52.548Z,28.75
2019-05-15T15:35:58.093Z,27.40
2019-05-15T15:38:03.841Z,30.15
2019-05-15T15:40:08.667Z,28.73
2019-05-15T15:42:12.553Z,27.42
2019-05-15T15:44:16.492Z,31.40
2019-05-15T15:46:20.489Z,32.93
2019-05-15T15:48:28.501Z,31.70
2019-05-15T15:50:33.009Z,28.27
2019-05-15T15:52:38.456Z,30.43
2019-05-15T15:54:42.919Z,34.35
2019-05-15T15:56:48.536Z,33.70
2019-05-15T15:58:52.724Z,39.18
2019-05-15T16:00:56.732Z,39.53
2019-05-15T16:03:00.774Z,38.35
2019-05-15T16:05:08.574Z,32.05
2019-05-15T16:07:12.779Z,33.75
2019-05-15T16:09:19.523Z,38.00
2019-05-15T16:11:24.989Z,36.08
2019-05-15T16:13:29.350Z,34.33
2019-05-15T16:15:33.695Z,37.38
2019-05-15T16:17:38.502Z,38.73
2019-05-15T16:19:44.576Z,36.70
2019-05-15T16:21:49.168Z,35.05
2019-05-15T16:23:53.191Z,38.67
2019-05-15T16:25:58.239Z,38.73
2019-05-15T16:28:02.608Z,37.73
2019-05-15T16:30:08.485Z,34.88
2019-05-15T16:32:12.586Z,36.88
2019-05-15T16:34:18.683Z,40.23
2019-05-15T16:36:22.277Z,37.88
2019-05-15T16:38:28.357Z,48.58
2019-05-15T16:40:32.230Z,42.67
2019-05-15T16:42:39.119Z,41.23
2019-05-15T16:44:44.774Z,43.28
2019-05-15T16:46:48.619Z,105.05
2019-05-15T16:48:52.772Z,79.67
2019-05-15T16:50:58.068Z,48.08
2019-05-15T16:53:02.107Z,56.92
2019-05-15T16:55:09.233Z,54.77
2019-05-15T16:57:13.304Z,64.97
2019-05-15T16:59:18.200Z,54.40
2019-05-15T17:01:22.445Z,49.98
2019-05-15T17:03:28.702Z,49.27
2019-05-15T17:05:33.543Z,46.25
2019-05-15T17:07:38.733Z,40.95
2019-05-15T17:09:43.287Z,44.83
2019-05-15T17:11:49.166Z,43.20
2019-05-15T17:13:53.454Z,43.48
2019-05-15T17:15:58.411Z,46.53
2019-05-15T17:18:02.648Z,48.90
2019-05-15T17:20:09.726Z,48.75
2019-05-15T17:22:14.195Z,41.53
2019-05-15T17:24:19.943Z,40.33
2019-05-15T17:26:23.850Z,42.88
2019-05-15T17:28:28.976Z,39.27
2019-05-15T17:30:33.501Z,45.83
2019-05-15T17:32:38.850Z,48.38
2019-05-15T17:34:43.124Z,44.40
2019-05-15T17:36:48.939Z,45.75
2019-05-15T17:38:53.832Z,47.90
2019-05-15T17:40:57.915Z,47.65
2019-05-15T17:43:02.746Z,47.25
2019-05-15T17:45:09.062Z,52.23
2019-05-15T17:47:15.277Z,53.28
2019-05-15T17:49:19.229Z,51.75
2019-05-15T17:51:32.462Z,49.77
2019-05-15T17:53:38.073Z,49.33
2019-05-15T17:55:41.735Z,48.75
2019-05-15T17:57:53.720Z,49.60
2019-05-15T17:59:51.331Z,54.15
2019-05-15T18:01:55.334Z,51.08
2019-05-15T18:03:59.952Z,55.43
2019-05-15T18:06:03.897Z,53.42
2019-05-15T18:08:08.873Z,51.63
2019-05-15T18:10:13.048Z,54.83
2019-05-15T18:12:16.924Z,53.25
2019-05-15T18:14:22.453Z,58.70
2019-05-15T18:16:26.321Z,57.00
2019-05-15T18:18:30.332Z,56.58
2019-05-15T18:20:34.391Z,54.73
2019-05-15T18:22:38.527Z,55.95
2019-05-15T18:24:42.491Z,50.95
2019-05-15T18:26:48.530Z,52.05
2019-05-15T18:28:52.033Z,53.17
2019-05-15T18:30:55.926Z,57.13
2019-05-15T18:33:01.085Z,47.20
2019-05-15T18:35:05.530Z,46.65
2019-05-15T18:37:10.217Z,50.12
2019-05-15T18:39:14.223Z,51.13
2019-05-15T18:41:18.509Z,47.83
2019-05-15T18:43:22.782Z,53.35
2019-05-15T18:45:28.779Z,52.73
2019-05-15T18:47:32.646Z,46.90
2019-05-15T18:49:38.006Z,48.45
2019-05-15T18:51:42.080Z,52.27
2019-05-15T18:53:48.047Z,49.60
2019-05-15T18:55:51.608Z,52.00
2019-05-15T18:57:58.538Z,45.75
2019-05-15T19:00:02.595Z,50.65
2019-05-15T19:02:08.032Z,52.00
2019-05-15T19:04:13.652Z,48.58
2019-05-15T19:06:18.507Z,44.73
2019-05-15T19:08:28.243Z,51.85
2019-05-15T19:10:34.024Z,50.35
2019-05-15T19:12:40.873Z,48.23
2019-05-15T19:14:45.961Z,49.30
2019-05-15T19:16:50.115Z,45.50
2019-05-15T19:18:58.368Z,47.08
2019-05-15T19:21:02.346Z,46.05
2019-05-15T19:23:08.001Z,49.85
2019-05-15T19:25:13.825Z,45.67
2019-05-15T19:27:19.741Z,42.15
2019-05-15T19:29:23.320Z,49.95
2019-05-15T19:31:30.667Z,43.70
2019-05-15T19:33:38.201Z,44.30
2019-05-15T19:35:40.562Z,50.00
2019-05-15T19:37:44.474Z,58.10
2019-05-15T19:39:48.411Z,58.25
2019-05-15T19:41:52.484Z,46.73
2019-05-15T19:43:58.149Z,47.58
2019-05-15T19:46:02.300Z,45.25
2019-05-15T19:48:06.203Z,43.45
2019-05-15T19:50:13.176Z,44.05
2019-05-15T19:52:17.962Z,46.65
2019-05-15T19:54:28.535Z,46.18
2019-05-15T19:56:31.973Z,42.93
2019-05-15T19:58:36.011Z,41.23
2019-05-15T20:00:40.084Z,44.08
2019-05-15T20:02:44.302Z,42.15
2019-05-15T20:04:49.085Z,43.17
2019-05-15T20:06:53.487Z,39.60
2019-05-15T20:08:58.639Z,41.10
2019-05-15T20:11:02.720Z,42.65
2019-05-15T20:13:07.097Z,36.08
2019-05-15T20:15:14.376Z,39.60
2019-05-15T20:17:21.565Z,41.20
2019-05-15T20:19:25.675Z,42.48
2019-05-15T20:21:29.682Z,40.43
2019-05-15T20:23:38.214Z,41.45
2019-05-15T20:25:42.408Z,47.50
2019-05-15T20:27:48.163Z,43.42
2019-05-15T20:29:53.611Z,39.73
2019-05-15T20:31:58.659Z,44.80
2019-05-15T20:34:06.119Z,38.95
2019-05-15T20:36:09.752Z,43.30
2019-05-15T20:38:13.991Z,35.85
2019-05-15T20:40:18.302Z,39.80
2019-05-15T20:42:22.489Z,37.05
2019-05-15T20:44:26.774Z,39.13
2019-05-15T20:46:30.710Z,45.75
2019-05-15T20:48:34.603Z,39.85
2019-05-15T20:50:38.724Z,41.02
2019-05-15T20:52:42.733Z,39.10
2019-05-15T20:54:48.026Z,38.38
2019-05-15T20:56:52.128Z,42.93
2019-05-15T20:58:58.172Z,39.03
2019-05-15T21:01:22.944Z,36.83
2019-05-15T21:03:26.857Z,36.88
2019-05-15T21:05:31.327Z,40.12
2019-05-15T21:07:40.105Z,39.50
2019-05-15T21:09:41.804Z,32.08
2019-05-15T21:11:48.254Z,35.13
2019-05-15T21:13:52.996Z,37.83
2019-05-15T21:15:58.955Z,35.43
2019-05-15T21:18:13.527Z,37.30
2019-05-15T21:20:11.959Z,38.08
2019-05-15T21:22:18.067Z,34.98
2019-05-15T21:24:23.528Z,32.90
2019-05-15T21:26:29.147Z,37.93
2019-05-15T21:28:34.659Z,36.28
2019-05-15T21:30:41.141Z,38.02
2019-05-15T21:32:44.105Z,34.88
2019-05-15T21:34:50.878Z,29.37
2019-05-15T21:36:54.783Z,29.85
2019-05-15T21:38:58.727Z,38.55
2019-05-15T21:41:02.697Z,35.48
2019-05-15T21:43:08.813Z,40.08
2019-05-15T21:45:14.549Z,41.28
2019-05-15T21:47:18.933Z,38.53
2019-05-15T21:49:23.232Z,37.65
2019-05-15T21:51:28.125Z,33.73
2019-05-15T21:53:32.375Z,37.30
2019-05-15T21:55:38.705Z,31.90
2019-05-15T21:57:42.354Z,35.68
2019-05-15T21:59:47.986Z,35.58
2019-05-15T22:01:51.811Z,33.50
2019-05-15T22:03:55.983Z,38.05
2019-05-15T22:06:00.106Z,31.68
2019-05-15T22:08:04.307Z,35.40
2019-05-15T22:10:10.824Z,33.98
2019-05-15T22:12:14.589Z,32.93
2019-05-15T22:14:18.809Z,26.27
2019-05-15T22:16:22.950Z,31.15
2019-05-15T22:18:28.093Z,31.17
2019-05-15T22:20:32.105Z,25.95
2019-05-15T22:22:36.009Z,27.00
2019-05-15T22:24:39.963Z,31.57
2019-05-15T22:26:43.972Z,29.20
2019-05-15T22:28:48.976Z,29.18
2019-05-15T22:30:53.420Z,30.70
2019-05-15T22:32:58.649Z,27.67
2019-05-15T22:35:09.113Z,25.75
2019-05-15T22:37:14.037Z,26.40
2019-05-15T22:39:18.912Z,26.75
2019-05-15T22:41:22.880Z,27.93
2019-05-15T22:43:28.687Z,28.02
2019-05-15T22:45:32.533Z,27.98
2019-05-15T22:47:36.865Z,30.23
2019-05-15T22:49:42.087Z,28.17
2019-05-15T22:51:48.455Z,22.65
2019-05-15T22:53:52.148Z,20.72
2019-05-15T22:55:58.652Z,22.20
2019-05-15T22:58:01.805Z,24.70
2019-05-15T23:00:08.759Z,21.75
2019-05-15T23:02:13.299Z,19.70
2019-05-15T23:04:18.135Z,25.23
2019-05-15T23:06:22.236Z,30.43
2019-05-15T23:08:26.140Z,30.80
2019-05-15T23:10:32.502Z,35.17
2019-05-15T23:12:38.260Z,30.70
2019-05-15T23:14:41.802Z,27.35
2019-05-15T23:16:48.142Z,22.35
2019-05-15T23:18:51.502Z,26.05
2019-05-15T23:20:55.921Z,20.70
2019-05-15T23:22:59.825Z,25.52
2019-05-15T23:25:04.449Z,22.58
2019-05-15T23:27:08.881Z,21.02
2019-05-15T23:29:12.942Z,22.15
2019-05-15T23:31:18.804Z,19.27
2019-05-15T23:33:22.425Z,18.87
2019-05-15T23:35:37.901Z,15.80
2019-05-15T23:37:39.166Z,17.98
2019-05-15T23:39:42.841Z,17.50
2019-05-15T23:41:46.833Z,19.32
2019-05-15T23:43:50.858Z,18.90
2019-05-15T23:45:54.756Z,16.87
2019-05-15T23:47:58.685Z,19.48
2019-05-15T23:50:02.677Z,15.50
2019-05-15T23:52:08.741Z,16.80
2019-05-15T23:54:12.236Z,15.58
2019-05-15T23:56:19.021Z,14.28
2019-05-15T23:58:22.087Z,16.73
